Time;durP1;ratioP1;P1;durP2;ratioP2;P2;SDS_P1;SDS_P2;PMS_P1;PMS_P2;Temp;Humidity;BMP_temperature;BMP_pressure;BME280_temperature;BME280_humidity;BME280_pressure;Samples;Min_cycle;Max_cycle;Signal;HPM_P1;HPM_P2
2023/11/07 00:01:29;;;;;;;14.25;6.93;;;;;;;5.00;63.81;100258.25;4995560;28;20123;-71
2023/11/07 00:03:56;;;;;;;21.40;8.65;;;;;;;4.91;64.45;100268.00;5000796;28;20034;-71
2023/11/07 00:06:21;;;;;;;16.23;7.47;;;;;;;4.81;64.92;100270.81;5009306;28;20619;-71
2023/11/07 00:08:47;;;;;;;19.67;7.53;;;;;;;4.70;65.18;100265.06;5000993;28;20065;-71
2023/11/07 00:11:12;;;;;;;11.98;7.47;;;;;;;4.71;65.21;100271.91;4995810;28;20473;-71
2023/11/07 00:13:40;;;;;;;13.38;7.10;;;;;;;4.59;65.62;100267.91;5005726;28;20700;-71
2023/11/07 00:16:07;;;;;;;18.77;7.78;;;;;;;4.64;64.96;100272.97;5000869;28;20033;-71
2023/11/07 00:18:33;;;;;;;13.68;7.45;;;;;;;4.66;64.93;100271.19;4998530;28;20068;-71
2023/11/07 00:20:59;;;;;;;18.17;8.38;;;;;;;4.60;65.33;100271.34;5005055;28;20034;-69
2023/11/07 00:23:25;;;;;;;19.85;8.23;;;;;;;4.90;64.17;100279.25;4993799;28;20042;-69
2023/11/07 00:25:53;;;;;;;16.50;7.68;;;;;;;4.94;64.27;100286.03;5002646;28;20120;-70
2023/11/07 00:28:19;;;;;;;21.30;8.02;;;;;;;4.86;64.20;100288.81;4994149;28;20041;-70
2023/11/07 00:30:48;;;;;;;14.73;7.70;;;;;;;5.30;62.89;100294.59;4990315;28;20128;-69
2023/11/07 00:33:14;;;;;;;14.68;8.70;;;;;;;4.78;64.10;100291.56;4998770;28;20042;-69
2023/11/07 00:35:42;;;;;;;12.50;7.82;;;;;;;4.94;64.05;100293.81;4998850;28;20109;-70
2023/11/07 00:38:08;;;;;;;20.40;8.05;;;;;;;5.19;63.31;100296.59;5004257;28;20384;-71
2023/11/07 00:40:35;;;;;;;16.98;8.38;;;;;;;4.85;64.55;100297.44;4981982;28;20071;-70
2023/11/07 00:43:01;;;;;;;18.17;8.02;;;;;;;5.14;62.75;100299.31;5000778;28;20077;-71
2023/11/07 00:45:26;;;;;;;19.45;8.90;;;;;;;4.86;64.36;100303.50;4992367;28;20033;-70
2023/11/07 00:47:52;;;;;;;17.65;8.13;;;;;;;5.12;62.71;100306.28;5005822;28;20423;-72
2023/11/07 00:50:18;;;;;;;14.05;7.05;;;;;;;4.90;63.45;100302.53;4997354;28;20128;-73
2023/11/07 00:52:43;;;;;;;17.05;7.45;;;;;;;4.98;63.77;100314.41;5004496;28;20905;-72
2023/11/07 00:55:12;;;;;;;12.77;7.18;;;;;;;4.86;63.41;100319.03;5000241;28;20095;-74
2023/11/07 00:57:37;;;;;;;12.90;7.43;;;;;;;5.00;63.26;100317.81;5013387;28;20126;-73
2023/11/07 01:00:04;;;;;;;15.75;7.07;;;;;;;5.24;62.06;100318.91;5004850;28;20127;-73
2023/11/07 01:02:30;;;;;;;13.38;6.60;;;;;;;4.92;63.02;100321.50;4999084;28;20523;-72
2023/11/07 01:04:55;;;;;;;12.93;6.05;;;;;;;4.80;63.61;100320.03;4993853;28;20061;-73
2023/11/07 01:07:21;;;;;;;13.30;5.78;;;;;;;5.16;62.40;100323.44;4991758;28;20045;-74
2023/11/07 01:09:46;;;;;;;13.48;6.38;;;;;;;4.42;64.96;100330.41;4985962;28;20125;-73
2023/11/07 01:12:13;;;;;;;17.10;6.47;;;;;;;5.13;62.39;100314.91;5004432;28;20049;-73
2023/11/07 01:14:39;;;;;;;13.20;6.30;;;;;;;4.87;63.01;100320.72;4987650;28;20030;-71
2023/11/07 01:17:05;;;;;;;19.38;5.95;;;;;;;5.02;62.85;100312.59;4992875;28;20060;-74
2023/11/07 01:19:31;;;;;;;11.07;5.35;;;;;;;4.99;62.54;100316.13;4998021;28;20488;-73
2023/11/07 01:21:56;;;;;;;13.55;5.90;;;;;;;5.13;62.09;100323.53;5010131;28;20032;-69
2023/11/07 01:24:21;;;;;;;10.63;5.50;;;;;;;4.64;63.01;100335.09;5007487;28;20436;-68
2023/11/07 01:26:47;;;;;;;13.95;5.20;;;;;;;4.35;63.84;100328.00;4986480;28;20404;-69
2023/11/07 01:29:16;;;;;;;14.32;4.75;;;;;;;5.03;62.51;100337.59;5003643;28;20505;-69
2023/11/07 01:31:42;;;;;;;12.07;5.40;;;;;;;4.67;63.85;100334.16;5007500;28;20121;-69
2023/11/07 01:34:08;;;;;;;15.40;4.70;;;;;;;5.01;62.48;100339.38;5001986;28;20131;-69
2023/11/07 01:36:34;;;;;;;9.15;5.03;;;;;;;4.59;63.69;100339.53;4995331;28;20037;-69
2023/11/07 01:38:59;;;;;;;9.88;4.82;;;;;;;4.36;63.96;100338.34;5003529;28;20061;-68
2023/11/07 01:41:24;;;;;;;14.80;5.43;;;;;;;4.94;62.19;100337.84;4998381;28;20034;-70
2023/11/07 01:43:50;;;;;;;13.73;4.25;;;;;;;4.95;61.96;100344.75;5001428;28;20071;-72
2023/11/07 01:46:16;;;;;;;17.88;5.93;;;;;;;4.20;64.33;100348.16;4997841;28;20092;-68
2023/11/07 01:48:42;;;;;;;11.85;4.93;;;;;;;4.88;62.33;100344.03;5007760;28;20084;-69
2023/11/07 01:51:09;;;;;;;12.13;4.93;;;;;;;4.94;62.31;100343.03;5004041;28;20556;-68
2023/11/07 01:53:35;;;;;;;9.18;4.05;;;;;;;4.89;62.43;100348.31;4995422;28;20033;-68
2023/11/07 01:56:00;;;;;;;14.32;5.00;;;;;;;4.80;62.25;100357.13;5000941;28;20032;-68
2023/11/07 01:58:26;;;;;;;5.65;4.20;;;;;;;4.66;63.66;100354.03;4995760;28;20033;-69
2023/11/07 02:00:53;;;;;;;12.32;4.82;;;;;;;4.58;62.86;100361.94;5004755;28;20029;-67
2023/11/07 02:03:22;;;;;;;11.43;4.32;;;;;;;4.72;62.89;100363.38;4996309;28;20276;-69
2023/11/07 02:05:49;;;;;;;28.98;5.75;;;;;;;4.37;64.01;100359.88;4999969;28;20033;-69
2023/11/07 02:08:15;;;;;;;11.05;4.78;;;;;;;5.08;62.04;100361.66;4999040;28;20128;-69
2023/11/07 02:10:43;;;;;;;8.30;4.20;;;;;;;4.72;63.03;100369.41;4998767;28;20140;-77
2023/11/07 02:13:10;;;;;;;16.20;5.25;;;;;;;5.06;61.95;100363.44;4992405;28;20091;-77
2023/11/07 02:15:38;;;;;;;13.90;6.03;;;;;;;5.18;61.95;100368.31;5000097;28;20043;-73
2023/11/07 02:18:04;;;;;;;13.82;5.72;;;;;;;4.92;62.60;100366.38;4994803;28;20045;-75
2023/11/07 02:20:31;;;;;;;14.70;5.13;;;;;;;5.15;62.00;100363.22;5007203;28;20045;-75
2023/11/07 02:23:06;;;;;;;10.57;5.80;;;;;;;4.76;62.86;100365.84;5011097;28;20026;-75
2023/11/07 02:25:35;;;;;;;25.10;6.75;;;;;;;5.23;61.84;100369.06;4997683;28;20034;-75
2023/11/07 02:28:01;;;;;;;16.75;6.00;;;;;;;4.74;63.78;100370.22;5004187;28;20055;-74
2023/11/07 02:30:27;;;;;;;14.00;7.95;;;;;;;4.41;64.87;100362.34;5003054;28;20029;-76
2023/11/07 02:32:53;;;;;;;13.40;7.10;;;;;;;4.86;62.86;100360.47;5002295;28;20123;-75
2023/11/07 02:35:18;;;;;;;20.30;7.70;;;;;;;4.75;63.62;100364.16;5003730;28;20244;-75
2023/11/07 02:37:46;;;;;;;12.35;6.85;;;;;;;4.62;64.83;100360.16;5010847;28;20065;-76
2023/11/07 02:40:12;;;;;;;19.55;8.07;;;;;;;5.15;62.62;100362.38;4996150;28;20499;-77
2023/11/07 02:42:37;;;;;;;18.10;8.73;;;;;;;5.00;62.87;100359.25;4991027;28;20037;-69
2023/11/07 02:45:03;;;;;;;20.10;9.75;;;;;;;5.14;62.71;100360.66;5007287;28;20669;-72
2023/11/07 02:47:29;;;;;;;20.10;8.48;;;;;;;4.62;64.39;100373.09;4995442;28;20145;-69
2023/11/07 02:49:55;;;;;;;19.52;9.25;;;;;;;5.12;63.23;100367.59;5000779;28;20029;-70
2023/11/07 02:52:21;;;;;;;20.45;8.88;;;;;;;5.01;63.11;100362.69;5013274;28;20477;-70
2023/11/07 02:54:48;;;;;;;12.45;7.35;;;;;;;5.12;63.02;100367.59;5008255;28;20956;-70
2023/11/07 02:57:14;;;;;;;15.32;8.60;;;;;;;5.04;63.50;100363.47;4999935;28;20411;-71
2023/11/07 02:59:40;;;;;;;21.00;9.10;;;;;;;5.39;62.16;100368.63;4995015;28;20037;-68
2023/11/07 03:02:06;;;;;;;19.60;10.10;;;;;;;5.46;62.00;100376.22;5000263;28;20048;-69
2023/11/07 03:04:34;;;;;;;17.30;9.63;;;;;;;4.73;63.77;100378.88;4998103;28;20100;-69
2023/11/07 03:07:00;;;;;;;17.52;9.82;;;;;;;5.18;63.46;100373.47;5001876;28;20032;-72
2023/11/07 03:09:26;;;;;;;22.63;8.68;;;;;;;5.10;64.06;100380.63;4998367;28;20460;-72
2023/11/07 03:11:53;;;;;;;20.05;9.60;;;;;;;5.13;63.12;100375.34;5006463;28;20033;-72
2023/11/07 03:14:19;;;;;;;19.20;9.63;;;;;;;5.33;62.74;100371.41;5016530;28;20053;-72
2023/11/07 03:16:45;;;;;;;28.38;10.68;;;;;;;5.10;63.56;100370.25;4996342;28;20030;-72
2023/11/07 03:19:10;;;;;;;22.08;11.77;;;;;;;5.35;63.18;100380.00;5008364;28;20038;-72
2023/11/07 03:21:36;;;;;;;19.10;10.18;;;;;;;5.57;62.04;100381.13;4999051;28;21067;-72
2023/11/07 03:24:08;;;;;;;15.27;9.13;;;;;;;5.82;61.65;100376.09;5008766;28;20092;-72
2023/11/07 03:26:34;;;;;;;22.83;10.43;;;;;;;5.42;62.70;100365.97;5013814;28;20041;-72
2023/11/07 03:29:00;;;;;;;20.02;9.70;;;;;;;5.64;62.15;100367.09;4998421;28;20041;-72
2023/11/07 03:31:26;;;;;;;21.10;9.70;;;;;;;5.79;62.04;100380.50;4997773;28;20109;-72
2023/11/07 03:33:51;;;;;;;17.40;9.80;;;;;;;5.56;62.53;100374.22;4986121;28;20029;-72
2023/11/07 03:36:17;;;;;;;22.05;9.65;;;;;;;5.02;64.65;100367.00;4999527;28;20461;-72
2023/11/07 03:38:43;;;;;;;19.27;10.00;;;;;;;5.69;62.60;100376.50;4997550;28;20176;-72
2023/11/07 03:41:10;;;;;;;14.20;9.05;;;;;;;5.77;62.32;100382.28;5000640;28;20116;-73
2023/11/07 03:43:36;;;;;;;21.73;10.07;;;;;;;5.46;63.24;100384.00;4987382;28;20038;-73
2023/11/07 03:46:06;;;;;;;18.17;10.30;;;;;;;5.28;63.73;100381.00;5002477;28;20045;-73
2023/11/07 03:48:31;;;;;;;18.30;10.02;;;;;;;4.95;64.72;100370.63;4996839;28;20422;-72
2023/11/07 03:50:57;;;;;;;20.73;8.88;;;;;;;5.67;62.53;100382.56;4999888;28;20420;-73
2023/11/07 03:53:22;;;;;;;17.33;9.57;;;;;;;5.46;63.43;100384.00;5001864;28;20046;-79
2023/11/07 03:55:48;;;;;;;20.30;8.60;;;;;;;5.51;63.08;100390.81;5009478;28;20067;-79
2023/11/07 03:58:16;;;;;;;21.58;9.18;;;;;;;5.11;64.32;100389.22;5017536;28;20585;-79
2023/11/07 04:00:45;;;;;;;19.15;8.63;;;;;;;5.59;62.80;100387.13;5002123;28;20067;-79
2023/11/07 04:03:10;;;;;;;18.83;8.93;;;;;;;5.36;63.52;100397.22;4997725;28;20041;-79
2023/11/07 04:05:36;;;;;;;21.20;9.82;;;;;;;5.06;65.00;100389.34;5012600;28;20112;-78
2023/11/07 04:08:04;;;;;;;22.08;9.45;;;;;;;5.98;61.32;100392.06;4994143;28;20141;-80
2023/11/07 04:10:30;;;;;;;23.30;9.35;;;;;;;5.01;64.60;100391.19;5014250;28;20033;-79
2023/11/07 04:12:56;;;;;;;14.88;7.82;;;;;;;5.09;64.38;100394.44;5004888;28;20037;-72
2023/11/07 04:15:23;;;;;;;17.42;8.43;;;;;;;5.45;63.47;100396.97;4998573;28;20041;-73
2023/11/07 04:17:49;;;;;;;19.38;9.60;;;;;;;5.88;62.12;100399.28;4997496;28;20047;-69
2023/11/07 04:20:16;;;;;;;11.55;7.00;;;;;;;5.45;63.18;100400.41;4998612;28;20421;-72
2023/11/07 04:22:43;;;;;;;13.02;7.85;;;;;;;5.24;64.18;100411.34;5004230;28;20065;-73
2023/11/07 04:25:09;;;;;;;14.48;8.07;;;;;;;5.61;63.02;100403.47;5007702;28;20096;-72
2023/11/07 04:27:35;;;;;;;16.30;7.60;;;;;;;5.62;62.74;100389.63;4998848;28;20674;-72
2023/11/07 04:30:05;;;;;;;28.40;9.05;;;;;;;5.67;62.77;100403.28;5005861;28;20646;-72
2023/11/07 04:32:31;;;;;;;23.02;8.75;;;;;;;5.83;62.00;100395.09;4998941;28;20124;-71
2023/11/07 04:34:56;;;;;;;16.95;7.40;;;;;;;5.04;63.50;100411.84;4992576;28;20120;-75
2023/11/07 04:37:21;;;;;;;12.05;8.70;;;;;;;5.45;63.42;100402.16;5006071;28;20038;-73
2023/11/07 04:39:47;;;;;;;16.52;7.95;;;;;;;5.09;64.12;100410.00;5002378;28;22329;-72
2023/11/07 04:42:13;;;;;;;15.23;9.50;;;;;;;5.46;63.36;100403.88;4989227;28;20033;-73
2023/11/07 04:44:39;;;;;;;15.68;9.25;;;;;;;4.76;65.62;100396.06;5003271;28;20116;-73
2023/11/07 04:47:05;;;;;;;18.30;7.63;;;;;;;5.40;63.81;100401.44;5002930;28;20038;-72
2023/11/07 04:49:31;;;;;;;16.27;7.97;;;;;;;5.57;63.35;100404.44;5003023;28;20041;-72
2023/11/07 04:51:58;;;;;;;20.50;8.55;;;;;;;4.75;65.34;100410.75;5003466;28;20040;-72
2023/11/07 04:54:25;;;;;;;12.65;7.85;;;;;;;5.18;64.34;100414.94;5006268;28;20030;-72
2023/11/07 04:56:54;;;;;;;19.95;9.30;;;;;;;4.72;64.97;100418.59;4996528;28;20030;-73
2023/11/07 04:59:22;;;;;;;12.75;7.82;;;;;;;5.08;64.54;100413.47;5002157;28;20033;-72
2023/11/07 05:01:48;;;;;;;19.30;8.65;;;;;;;5.49;63.18;100410.72;4999382;28;21369;-72
2023/11/07 05:04:14;;;;;;;14.07;8.27;;;;;;;5.33;63.61;100399.91;5003134;28;20535;-73
2023/11/07 05:06:41;;;;;;;35.28;9.50;;;;;;;5.48;63.13;100407.28;5000726;28;20044;-72
2023/11/07 05:09:08;;;;;;;14.02;7.50;;;;;;;5.54;62.71;100408.84;4987621;28;21163;-72
2023/11/07 05:11:35;;;;;;;15.60;8.50;;;;;;;5.25;63.91;100398.34;5002389;28;20084;-72
2023/11/07 05:14:01;;;;;;;15.70;6.63;;;;;;;5.07;64.61;100396.22;5008690;28;20124;-72
2023/11/07 05:16:26;;;;;;;12.80;7.60;;;;;;;5.71;62.17;100398.03;5006788;28;20811;-73
2023/11/07 05:18:53;;;;;;;13.75;6.25;;;;;;;5.54;62.45;100407.09;5001057;28;20033;-72
2023/11/07 05:21:18;;;;;;;16.92;7.43;;;;;;;5.11;63.78;100402.19;4989731;28;20030;-72
2023/11/07 05:23:44;;;;;;;10.05;6.57;;;;;;;5.17;64.04;100400.28;5000446;28;20301;-72
2023/11/07 05:26:11;;;;;;;13.90;6.65;;;;;;;5.20;63.84;100404.53;5002409;28;20037;-70
2023/11/07 05:28:39;;;;;;;18.10;8.25;;;;;;;4.78;64.88;100410.69;4999209;28;20133;-70
2023/11/07 05:31:05;;;;;;;17.55;7.60;;;;;;;5.56;62.43;100415.69;5002404;28;20161;-71
2023/11/07 05:33:34;;;;;;;11.10;6.00;;;;;;;5.22;63.54;100421.75;4999143;28;20542;-71
2023/11/07 05:35:59;;;;;;;10.50;6.68;;;;;;;5.17;63.37;100423.63;5002455;28;20038;-72
2023/11/07 05:38:25;;;;;;;18.88;7.43;;;;;;;5.41;62.85;100416.97;5001267;28;20052;-73
2023/11/07 05:40:53;;;;;;;20.02;7.70;;;;;;;4.56;65.38;100441.38;5000212;28;21008;-73
2023/11/07 05:43:19;;;;;;;20.05;7.50;;;;;;;5.00;64.32;100430.94;5004874;28;20227;-73
2023/11/07 05:45:45;;;;;;;16.92;8.10;;;;;;;5.59;62.16;100441.56;4989246;28;20097;-72
2023/11/07 05:48:11;;;;;;;16.52;7.22;;;;;;;5.72;61.92;100436.03;5003360;28;21232;-72
2023/11/07 05:50:37;;;;;;;9.68;5.95;;;;;;;5.43;62.78;100435.03;4999477;28;20088;-72
2023/11/07 05:53:03;;;;;;;16.95;7.00;;;;;;;5.53;62.24;100440.88;5001446;28;20584;-72
2023/11/07 05:55:28;;;;;;;15.32;6.03;;;;;;;5.06;63.85;100443.75;5001967;28;20124;-71
2023/11/07 05:57:54;;;;;;;13.70;5.15;;;;;;;5.17;63.52;100444.34;4987360;28;20141;-72
2023/11/07 06:00:20;;;;;;;12.65;6.03;;;;;;;5.12;63.41;100440.97;4987557;28;20786;-74
2023/11/07 06:02:46;;;;;;;11.38;5.68;;;;;;;5.29;63.26;100442.34;5006422;28;20517;-73
2023/11/07 06:05:11;;;;;;;11.88;5.82;;;;;;;4.94;64.38;100446.59;5005545;28;20507;-73
2023/11/07 06:07:37;;;;;;;13.38;5.35;;;;;;;4.65;64.95;100435.16;4998224;28;20544;-72
2023/11/07 06:10:05;;;;;;;13.57;5.32;;;;;;;4.88;63.54;100447.63;5004607;28;20503;-72
2023/11/07 06:12:30;;;;;;;12.05;4.25;;;;;;;4.74;64.73;100447.88;4994693;28;20603;-72
2023/11/07 06:14:56;;;;;;;12.82;4.65;;;;;;;5.02;63.63;100444.69;5000300;28;20040;-74
2023/11/07 06:17:21;;;;;;;7.63;4.20;;;;;;;5.29;62.48;100447.50;4999867;28;20931;-72
2023/11/07 06:19:47;;;;;;;15.45;5.00;;;;;;;4.90;63.58;100445.84;4997420;28;20041;-70
2023/11/07 06:22:16;;;;;;;15.80;4.85;;;;;;;5.02;63.29;100455.06;4998404;28;20029;-71
2023/11/07 06:24:42;;;;;;;6.90;3.75;;;;;;;4.77;63.83;100458.19;4988925;28;20408;-72
2023/11/07 06:27:07;;;;;;;20.48;5.15;;;;;;;5.07;63.12;100458.38;4997820;28;20037;-73
2023/11/07 06:29:34;;;;;;;9.00;3.58;;;;;;;5.32;62.26;100460.38;5001883;28;20044;-73
2023/11/07 06:31:59;;;;;;;15.07;4.28;;;;;;;4.94;63.21;100463.00;5004769;28;20092;-72
2023/11/07 06:34:25;;;;;;;10.52;3.92;;;;;;;4.59;64.68;100471.53;5006675;28;20079;-72
2023/11/07 06:36:52;;;;;;;6.43;3.80;;;;;;;4.74;63.66;100475.50;4998648;28;20057;-73
2023/11/07 06:39:23;;;;;;;10.88;4.97;;;;;;;4.72;64.18;100475.56;4999898;28;20038;-73
2023/11/07 06:41:51;;;;;;;13.40;5.15;;;;;;;4.69;63.87;100477.38;4996291;28;20511;-68
2023/11/07 06:44:16;;;;;;;6.40;3.35;;;;;;;4.94;63.78;100482.88;4998998;28;20065;-70
2023/11/07 06:46:42;;;;;;;9.82;3.63;;;;;;;4.93;63.46;100476.84;4998074;28;20061;-69
2023/11/07 06:49:08;;;;;;;18.20;4.00;;;;;;;5.16;62.86;100486.66;4997745;28;20099;-71
2023/11/07 06:51:33;;;;;;;6.75;3.67;;;;;;;5.07;63.13;100484.28;5000571;28;20647;-69
2023/11/07 06:54:00;;;;;;;15.00;4.60;;;;;;;5.04;63.25;100489.56;5007193;28;20532;-72
2023/11/07 06:56:28;;;;;;;10.18;3.88;;;;;;;4.80;63.71;100485.75;5001970;28;20033;-72
2023/11/07 06:58:53;;;;;;;10.18;4.43;;;;;;;4.80;63.47;100486.59;4993819;28;20104;-72
2023/11/07 07:01:19;;;;;;;13.18;4.07;;;;;;;4.86;63.41;100482.19;4997345;28;20034;-71
2023/11/07 07:03:48;;;;;;;8.77;4.20;;;;;;;5.19;63.02;100489.19;4994378;28;20037;-71
2023/11/07 07:06:18;;;;;;;14.90;4.53;;;;;;;4.76;64.40;100499.63;4999313;28;20069;-71
2023/11/07 07:08:43;;;;;;;12.98;4.28;;;;;;;5.21;63.32;100507.28;4995483;28;20038;-71
2023/11/07 07:11:09;;;;;;;9.90;4.53;;;;;;;4.99;63.91;100507.78;5001590;28;20048;-71
2023/11/07 07:13:34;;;;;;;10.18;5.07;;;;;;;5.30;62.82;100508.81;5000516;28;20042;-71
2023/11/07 07:16:00;;;;;;;15.35;5.70;;;;;;;4.98;63.30;100505.22;4996727;28;20055;-72
2023/11/07 07:18:27;;;;;;;12.63;5.00;;;;;;;4.97;63.84;100521.66;5003945;28;20649;-70
2023/11/07 07:20:55;;;;;;;7.22;4.18;;;;;;;5.11;63.55;100504.06;4996798;28;20033;-72
2023/11/07 07:23:24;;;;;;;9.10;5.18;;;;;;;5.51;62.05;100521.25;4999435;28;20666;-71
2023/11/07 07:25:52;;;;;;;11.48;4.70;;;;;;;5.34;62.30;100523.41;4998688;28;20113;-79
2023/11/07 07:28:20;;;;;;;11.32;5.22;;;;;;;5.45;61.84;100521.41;5013225;28;20117;-81
2023/11/07 07:30:47;;;;;;;8.85;3.90;;;;;;;5.51;61.80;100521.25;4990724;28;20504;-72
2023/11/07 07:33:19;;;;;;;11.25;4.55;;;;;;;5.82;61.05;100531.72;4991197;28;20055;-81
2023/11/07 07:35:48;;;;;;;11.77;4.50;;;;;;;5.89;60.91;100524.63;4988919;28;20144;-71
2023/11/07 07:38:13;;;;;;;8.32;4.32;;;;;;;5.82;60.62;100530.88;5015945;28;20041;-76
2023/11/07 07:40:42;;;;;;;11.23;4.15;;;;;;;5.99;60.51;100533.84;5000080;28;20048;-76
2023/11/07 07:43:11;;;;;;;14.90;4.43;;;;;;;5.76;61.49;100533.59;4987605;28;20099;-72
2023/11/07 07:45:42;;;;;;;12.13;4.32;;;;;;;5.64;61.77;100534.78;5004817;28;20060;-77
2023/11/07 07:48:09;;;;;;;12.18;5.15;;;;;;;5.37;62.41;100534.56;5002349;28;20052;-71
2023/11/07 07:50:35;;;;;;;12.75;4.13;;;;;;;5.60;61.42;100540.94;4999882;28;20126;-77
2023/11/07 07:53:06;;;;;;;11.40;4.30;;;;;;;5.28;62.33;100552.91;5003700;28;20045;-69
2023/11/07 07:55:32;;;;;;;8.93;3.97;;;;;;;5.76;61.16;100546.56;4997965;28;20030;-69
2023/11/07 07:58:00;;;;;;;9.15;4.35;;;;;;;5.81;61.49;100549.91;4990769;28;20093;-70
2023/11/07 08:00:30;;;;;;;8.10;3.92;;;;;;;5.72;60.89;100548.38;4995382;28;20557;-71
2023/11/07 08:02:58;;;;;;;10.10;4.22;;;;;;;5.78;60.03;100539.63;4998041;28;20030;-76
2023/11/07 08:05:24;;;;;;;9.10;3.50;;;;;;;5.89;59.72;100547.97;5012960;28;20607;-77
2023/11/07 08:07:50;;;;;;;9.75;3.65;;;;;;;5.48;60.55;100547.28;5003158;28;20057;-79
2023/11/07 08:10:22;;;;;;;6.25;3.08;;;;;;;5.85;60.17;100546.34;5001349;28;20045;-72
2023/11/07 08:12:50;;;;;;;10.65;4.25;;;;;;;6.54;57.96;100556.66;5004315;28;20045;-72
2023/11/07 08:15:17;;;;;;;10.45;3.92;;;;;;;6.43;57.85;100549.16;5003174;28;20037;-83
2023/11/07 08:17:43;;;;;;;8.70;2.95;;;;;;;6.29;58.64;100552.16;4988875;28;20041;-78
2023/11/07 08:20:15;;;;;;;13.18;3.20;;;;;;;6.86;56.85;100553.13;5003123;28;20033;-71
2023/11/07 08:22:45;;;;;;;6.00;3.13;;;;;;;6.88;56.80;100553.91;4994098;28;20045;-72
2023/11/07 08:25:11;;;;;;;10.27;2.95;;;;;;;7.76;54.47;100559.88;5005416;28;20138;-69
2023/11/07 08:27:41;;;;;;;8.50;2.55;;;;;;;7.38;55.52;100567.13;5000260;28;20038;-68
2023/11/07 08:30:12;;;;;;;8.25;3.10;;;;;;;7.21;55.86;100564.22;4986408;28;20132;-68
2023/11/07 08:32:42;;;;;;;7.73;3.00;;;;;;;6.28;57.92;100560.81;4997765;28;20038;-69
2023/11/07 08:35:10;;;;;;;7.68;2.83;;;;;;;6.77;56.95;100569.81;5002779;28;20275;-71
2023/11/07 08:37:36;;;;;;;13.10;2.53;;;;;;;6.19;58.21;100566.22;5004781;28;20057;-69
2023/11/07 08:40:03;;;;;;;5.80;2.28;;;;;;;6.03;59.39;100566.63;4996842;28;20026;-69
2023/11/07 08:42:30;;;;;;;11.85;4.05;;;;;;;6.66;57.45;100580.53;4996389;28;20321;-69
2023/11/07 08:44:56;;;;;;;6.88;2.90;;;;;;;6.35;57.46;100572.75;4999085;28;20229;-69
2023/11/07 08:47:21;;;;;;;6.78;2.70;;;;;;;6.67;57.32;100576.19;4994366;28;20613;-69
2023/11/07 08:49:47;;;;;;;9.90;3.80;;;;;;;7.14;56.38;100584.34;4982261;28;20033;-69
2023/11/07 08:52:14;;;;;;;5.30;2.65;;;;;;;6.48;57.71;100573.25;4995503;28;20064;-69
2023/11/07 08:54:39;;;;;;;6.60;3.38;;;;;;;5.80;59.30;100579.34;5004045;28;20045;-70
2023/11/07 08:57:04;;;;;;;7.10;2.53;;;;;;;6.63;57.79;100588.41;4996419;28;20029;-69
2023/11/07 08:59:30;;;;;;;12.32;3.42;;;;;;;6.32;57.93;100588.38;4996791;28;20326;-70
2023/11/07 09:01:55;;;;;;;7.20;3.40;;;;;;;6.38;58.21;100583.03;4999330;28;20162;-69
2023/11/07 09:04:21;;;;;;;5.70;3.42;;;;;;;6.76;57.53;100588.06;4997472;28;20045;-69
2023/11/07 09:06:46;;;;;;;7.13;4.07;;;;;;;6.35;57.57;100593.50;4996113;28;20030;-69
2023/11/07 09:09:15;;;;;;;9.55;2.97;;;;;;;6.71;57.43;100583.00;4994475;28;20038;-69
2023/11/07 09:11:41;;;;;;;7.25;3.83;;;;;;;6.84;56.92;100592.16;4999532;28;20526;-70
2023/11/07 09:14:08;;;;;;;7.18;3.55;;;;;;;6.30;58.06;100587.56;4999808;28;20034;-69
2023/11/07 09:16:34;;;;;;;5.80;3.00;;;;;;;6.27;58.37;100596.25;5003137;28;20049;-69
2023/11/07 09:18:59;;;;;;;10.70;4.45;;;;;;;6.59;57.26;100601.50;5009127;28;20038;-69
2023/11/07 09:21:27;;;;;;;8.23;3.35;;;;;;;7.80;54.68;100599.63;5002504;28;20524;-69
2023/11/07 09:23:53;;;;;;;7.85;3.97;;;;;;;7.82;53.84;100603.03;4998101;28;20065;-68
2023/11/07 09:26:19;;;;;;;7.70;3.50;;;;;;;7.55;55.00;100605.63;4987828;28;20678;-69
2023/11/07 09:28:45;;;;;;;5.50;2.55;;;;;;;8.34;53.19;100596.09;4999416;28;20052;-69
2023/11/07 09:31:14;;;;;;;7.60;3.10;;;;;;;8.34;53.04;100599.53;5000182;28;20484;-69
2023/11/07 09:33:40;;;;;;;7.10;3.00;;;;;;;8.10;52.87;100600.38;5004187;28;20129;-70
2023/11/07 09:36:09;;;;;;;5.07;2.33;;;;;;;9.11;50.70;100603.72;4998324;28;21347;-69
2023/11/07 09:38:37;;;;;;;7.60;2.67;;;;;;;9.19;50.97;100601.69;5002377;28;20053;-70
2023/11/07 09:41:05;;;;;;;6.80;2.80;;;;;;;9.20;49.90;100598.16;4985269;28;20034;-68
2023/11/07 09:43:31;;;;;;;6.88;2.72;;;;;;;9.67;49.07;100599.78;5005326;28;20045;-69
2023/11/07 09:46:01;;;;;;;4.47;2.67;;;;;;;7.63;52.97;100619.25;4996515;28;20060;-68
2023/11/07 09:48:28;;;;;;;5.22;2.30;;;;;;;7.40;54.75;100606.06;5000394;28;20046;-68
2023/11/07 09:50:55;;;;;;;5.28;2.55;;;;;;;7.67;53.85;100614.81;5005560;28;20026;-69
2023/11/07 09:53:21;;;;;;;8.85;2.28;;;;;;;7.45;54.52;100605.03;4998650;28;20037;-69
2023/11/07 09:55:50;;;;;;;4.75;2.40;;;;;;;7.26;54.93;100607.34;4998751;28;20034;-70
2023/11/07 09:58:28;;;;;;;5.18;2.78;;;;;;;7.42;54.82;100606.88;5004136;28;20133;-69
2023/11/07 10:00:57;;;;;;;7.38;3.25;;;;;;;6.63;55.99;100609.16;4996226;28;20068;-69
2023/11/07 10:03:23;;;;;;;5.65;2.72;;;;;;;8.22;52.61;100606.91;4997986;28;20094;-70
2023/11/07 10:05:49;;;;;;;5.47;2.08;;;;;;;8.35;52.39;100609.03;4995613;28;20126;-69
2023/11/07 10:08:18;;;;;;;7.78;2.78;;;;;;;8.61;50.80;100619.44;4997219;28;20045;-69
2023/11/07 10:11:10;;;;;;;4.95;2.05;;;;;;;7.41;53.74;100620.78;4995904;28;20137;-69
2023/11/07 10:13:36;;;;;;;4.88;2.35;;;;;;;7.22;54.40;100617.88;4992783;28;20111;-69
2023/11/07 10:16:06;;;;;;;6.25;2.35;;;;;;;8.10;51.82;100618.59;4993534;28;20042;-69
2023/11/07 10:18:56;;;;;;;8.45;2.70;;;;;;;8.85;50.64;100608.16;4994329;28;20037;-69
2023/11/07 10:21:30;;;;;;;4.05;3.08;;;;;;;8.68;52.29;100615.72;5000150;28;20048;-72
2023/11/07 10:23:55;;;;;;;5.45;2.95;;;;;;;9.01;51.06;100618.88;4988035;28;20049;-70
2023/11/07 10:26:24;;;;;;;3.15;1.77;;;;;;;9.41;49.68;100606.91;4995617;28;20103;-70
2023/11/07 10:29:15;;;;;;;9.45;2.20;;;;;;;9.82;47.55;100624.47;4990437;28;20176;-70
2023/11/07 10:31:43;;;;;;;3.47;2.83;;;;;;;9.25;49.31;100611.00;4994897;28;20124;-70
2023/11/07 10:34:17;;;;;;;4.15;1.98;;;;;;;9.25;48.98;100617.06;4983956;28;20257;-70
2023/11/07 10:36:44;;;;;;;5.57;1.83;;;;;;;9.20;49.57;100619.00;4995046;28;20034;-70
2023/11/07 10:39:16;;;;;;;3.47;1.60;;;;;;;8.88;50.74;100613.25;4992187;28;20056;-70
2023/11/07 10:41:45;;;;;;;;;;;;;;;8.53;51.24;100622.31;4997220;28;20041;-69
2023/11/07 10:44:28;;;;;;;5.95;1.63;;;;;;;8.25;50.96;100619.81;4990453;28;21006;-70
2023/11/07 10:46:57;;;;;;;6.75;2.75;;;;;;;8.24;50.91;100626.78;4993816;28;20032;-70
2023/11/07 10:49:24;;;;;;;3.15;1.95;;;;;;;8.98;49.68;100614.63;4993710;28;20470;-70
2023/11/07 10:51:51;;;;;;;5.72;2.55;;;;;;;8.43;50.92;100627.00;5003941;28;20241;-70
2023/11/07 10:54:20;;;;;;;4.30;1.85;;;;;;;9.12;49.37;100618.44;4993742;28;20047;-70
2023/11/07 10:56:47;;;;;;;7.57;2.20;;;;;;;8.51;50.37;100630.16;4997761;28;20045;-70
2023/11/07 10:59:23;;;;;;;5.05;2.20;;;;;;;8.68;50.39;100621.78;4994698;28;20038;-69
2023/11/07 11:01:53;;;;;;;2.60;1.83;;;;;;;9.27;50.48;100620.47;4994648;28;20060;-69
2023/11/07 11:04:25;;;;;;;6.70;2.30;;;;;;;8.89;49.96;100614.94;4991978;28;20077;-70
2023/11/07 11:07:02;;;;;;;5.65;2.10;;;;;;;9.65;48.93;100619.88;4996823;28;20520;-70
2023/11/07 11:09:28;;;;;;;4.30;2.58;;;;;;;10.22;47.92;100621.03;4995608;28;20077;-69
2023/11/07 11:11:57;;;;;;;5.55;1.90;;;;;;;9.47;48.26;100617.06;4999439;28;20093;-70
2023/11/07 11:14:23;;;;;;;3.20;1.70;;;;;;;8.88;49.82;100602.00;4992686;28;20089;-71
2023/11/07 11:16:51;;;;;;;4.43;2.33;;;;;;;8.40;51.76;100616.69;5003848;28;20300;-69
2023/11/07 11:19:32;;;;;;;5.43;2.47;;;;;;;8.39;51.75;100621.97;4992893;28;20404;-70
2023/11/07 11:22:08;;;;;;;4.45;2.17;;;;;;;8.36;51.86;100635.94;4994682;28;20040;-69
2023/11/07 11:24:58;;;;;;;6.53;1.98;;;;;;;8.82;50.70;100617.84;5007585;28;20041;-69
2023/11/07 11:27:36;;;;;;;6.28;1.70;;;;;;;8.04;51.94;100614.44;4994940;28;20045;-71
2023/11/07 11:30:05;;;;;;;6.90;2.90;;;;;;;8.48;51.78;100622.47;4999639;28;20041;-69